Date,TemperatureHighF,TemperatureAvgF,TemperatureLowF,DewpointHighF,DewpointAvgF,DewpointLowF,HumidityHigh,HumidityAvg,HumidityLow,PressureMaxIn,PressureMinIn,WindSpeedMaxMPH,WindSpeedAvgMPH,GustSpeedMaxMPH,PrecipitationSumIn
2013-1-1,50,36,29,38,30,26,97,81,51,30.30,30.21,13,2,13,21.16
2013-1-2,55,36,26,35,28,24,94,76,46,30.27,30.15,9,1,9,21.16
2013-1-3,54,36,26,38,29,24,94,79,48,30.30,30.18,10,1,10,21.16
2013-1-4,55,38,28,39,31,26,96,80,50,30.30,30.18,8,1,8,21.16
2013-1-5,53,40,30,45,35,28,98,84,51,30.27,30.09,11,1,11,21.16
2013-1-6,49,42,34,45,40,33,98,93,79,30.21,30.06,10,1,10,21.16
2013-1-7,50,39,31,43,36,31,98,92,73,30.27,30.12,16,1,16,21.16
2013-1-8,54,41,35,48,38,34,98,92,68,30.27,30.15,10,1,10,21.16
2013-1-9,51,42,35,48,40,35,98,94,74,30.24,29.94,24,2,24,21.16
2013-1-10,47,36,27,38,30,24,98,81,51,30.15,30.00,17,3,17,0.00
2013-1-11,48,32,23,36,26,21,97,79,48,30.21,30.12,10,1,10,0.00
2013-1-12,45,32,24,26,20,16,88,63,43,30.21,30.12,12,2,12,0.00
2013-1-13,45,31,22,28,19,10,84,63,46,30.24,30.12,14,2,14,0.00
2013-1-14,48,31,21,28,16,9,73,55,39,30.39,30.15,10,2,10,0.00
2013-1-15,50,34,24,31,24,18,84,70,49,30.44,30.39,9,1,9,0.00
2013-1-16,57,36,25,36,26,22,92,70,38,30.44,30.27,10,1,10,0.00
2013-1-17,62,39,26,39,28,22,89,68,38,30.30,30.18,8,1,8,0.00
2013-1-18,65,42,29,38,28,22,79,62,34,30.27,30.18,10,1,10,0.00
2013-1-19,63,42,29,38,29,23,82,64,36,30.27,30.21,11,2,11,0.00
2013-1-20,63,38,29,38,28,23,83,69,38,30.27,30.15,10,0,10,0.00
2013-1-21,65,42,30,40,30,24,85,66,36,30.24,30.12,10,1,10,0.00
2013-1-22,40,34,31,33,28,24,85,77,66,30.18,30.06,4,0,4,0.00
2013-1-23,66,50,38,43,36,29,78,63,34,30.12,30.00,10,1,10,0.00
2013-1-24,59,53,49,53,48,42,96,84,70,30.21,30.06,7,1,7,0.08
2013-1-25,66,54,47,62,52,46,98,93,76,30.21,30.06,13,2,13,0.21
2013-1-26,56,48,40,52,44,36,98,89,57,30.09,29.94,17,2,17,0.00
2013-1-27,53,40,32,44,35,30,98,84,53,30.15,30.00,13,2,13,0.00
2013-1-28,54,44,32,34,31,29,91,62,45,30.27,30.15,17,4,17,0.00
2013-1-29,57,42,32,38,32,29,91,71,45,30.33,30.24,17,3,17,0.00
2013-1-30,61,43,32,43,36,30,97,78,49,30.36,30.27,11,1,11,0.00
2013-1-31,67,44,31,45,36,29,97,77,43,30.36,30.21,11,1,11,0.00
2013-2-1,67,47,33,44,36,30,92,72,40,30.24,30.15,10,2,10,0.00
2013-2-3,63,47,37,43,37,34,91,72,46,30.18,30.12,11,1,11,0.00
2013-2-4,66,45,34,48,38,32,96,80,46,30.18,30.06,10,1,10,0.00
2013-2-5,53,42,34,43,37,32,93,82,67,30.15,30.06,8,1,8,0.00
2013-2-6,59,46,30,42,35,29,97,70,43,30.18,30.09,12,3,12,0.00
2013-2-7,52,42,32,43,37,29,94,83,63,30.18,30.00,13,2,13,0.00
2013-2-8,54,41,30,39,31,19,96,70,42,30.00,29.88,20,3,20,0.00
2013-2-9,54,38,30,37,27,18,84,63,45,30.12,29.94,13,2,13,0.00
2013-2-10,57,41,28,38,29,22,91,66,42,30.12,30.00,17,2,17,0.00
2013-2-11,60,43,29,37,25,15,78,51,38,30.27,30.06,11,2,11,0.00
2013-2-12,62,42,31,39,30,26,87,64,37,30.39,30.24,13,1,13,0.00
2013-2-13,64,43,31,41,33,27,89,68,41,30.36,30.24,10,1,10,0.00
2013-2-14,68,46,31,46,36,28,96,73,43,30.27,30.18,11,1,11,0.00
2013-2-15,71,48,34,47,36,31,91,67,34,30.33,30.24,8,1,8,0.00
2013-2-16,70,54,37,42,35,26,83,52,34,30.30,30.06,8,2,8,0.00
2013-2-17,68,47,34,42,34,27,84,63,37,30.06,29.97,14,1,14,0.00
2013-2-18,63,46,34,43,36,31,91,72,46,30.03,29.91,17,3,17,0.00
2013-2-19,44,38,32,40,35,31,97,88,74,29.97,29.74,19,4,19,0.58
2013-2-20,58,39,26,42,31,25,97,76,39,30.06,29.76,19,3,19,0.00
2013-2-21,60,42,29,39,31,24,91,67,38,30.15,30.00,21,3,21,0.00
2013-2-22,62,44,29,39,32,25,93,64,41,30.24,30.12,11,2,11,0.00
2013-2-23,60,49,40,44,32,16,87,55,32,30.24,30.12,23,6,23,0.00
2013-2-24,64,44,30,34,23,14,64,44,26,30.27,30.12,13,2,13,0.00
2013-2-25,67,46,33,38,28,21,78,52,32,30.30,30.18,16,2,16,0.00
2013-2-26,40,37,34,27,26,24,68,63,57,30.21,30.15,8,1,8,0.00
2013-2-28,47,46,45,36,36,34,68,67,67,30.44,30.44,5,2,5,0.00
2013-3-1,77,54,37,46,39,32,88,60,33,30.44,30.30,13,2,13,0.00
2013-3-2,75,58,43,48,42,38,84,58,35,30.30,30.09,10,1,10,0.00
2013-3-3,65,55,45,49,45,41,85,70,50,30.12,30.03,14,2,14,0.00
2013-3-4,69,51,38,50,42,35,94,74,45,30.15,30.03,11,2,11,1.54
2013-3-5,43,43,42,40,40,40,92,92,91,30.03,30.03,3,0,3,0.00
2013-3-6,44,43,41,39,38,37,86,85,84,30.03,30.00,0,0,0,0.62
2013-3-7,63,46,35,44,38,34,96,77,45,30.03,29.88,20,2,20,0.62
2013-3-8,66,48,32,45,37,31,96,69,36,30.06,29.79,16,3,16,0.62
2013-3-9,68,50,34,43,34,25,96,60,32,30.30,30.00,22,4,22,0.62
2013-3-10,69,49,32,44,34,20,82,56,40,30.36,30.27,14,2,14,0.62
2013-3-11,74,53,38,46,39,34,88,63,34,30.27,30.12,11,2,11,0.62
2013-3-12,78,56,40,49,42,37,91,64,34,30.21,30.12,14,2,14,0.62
2013-3-13,62,52,46,45,43,42,87,73,47,30.18,30.12,3,0,3,0.00
2013-3-14,83,62,46,51,45,39,83,58,32,30.18,30.12,12,2,12,0.00
2013-3-23,43,42,42,28,28,27,56,55,55,30.09,30.06,3,0,3,0.00
2013-3-24,77,56,39,43,34,27,67,46,23,30.12,30.00,13,2,13,0.00
2013-3-25,76,57,42,47,40,35,77,56,34,30.03,29.94,13,4,13,0.00
2013-3-26,51,50,47,41,39,37,76,68,63,30.00,29.94,2,1,2,0.00
2013-3-27,75,58,43,51,45,39,86,66,41,30.06,29.94,17,2,17,0.00
2013-3-28,74,60,51,51,46,42,80,64,42,30.12,30.03,13,2,13,0.00
2013-3-29,83,63,48,51,44,40,79,53,30,30.12,30.06,11,2,11,0.00
2013-3-30,78,63,49,52,47,42,80,58,39,30.09,30.00,13,1,13,0.00
2013-3-31,75,58,50,58,49,42,96,75,42,30.12,30.00,13,3,13,0.88
2013-4-1,74,58,48,53,47,43,96,72,41,30.18,30.09,16,2,16,0.00
2013-4-2,77,57,44,52,44,41,91,67,40,30.18,30.09,14,3,14,0.00
2013-4-3,82,60,47,54,48,44,90,66,37,30.18,30.00,13,2,13,0.00
2013-4-4,61,55,49,59,52,44,96,92,73,30.15,30.00,17,2,17,0.45
2013-4-5,69,57,49,54,50,46,97,79,49,30.21,30.12,11,2,11,0.00
2013-4-6,74,56,49,53,49,46,95,80,45,30.21,30.12,13,3,13,0.00
2013-4-7,72,57,48,52,48,43,95,75,47,30.18,29.79,18,4,18,0.08
2013-4-8,70,54,45,48,38,14,97,61,22,30.03,29.76,27,7,27,0.29
2013-4-9,75,59,47,42,31,24,41,35,27,30.12,30.00,25,8,25,0.21
2013-4-10,86,66,48,51,39,26,70,39,25,30.21,30.00,13,3,13,0.21
2013-4-11,61,56,51,50,45,37,75,65,55,30.06,29.82,9,2,9,0.00
2013-4-12,84,61,44,50,44,38,87,57,29,29.94,29.82,13,1,13,0.00
2013-4-13,83,62,47,52,46,41,84,61,32,29.91,29.82,11,2,11,0.00
2013-4-14,78,58,43,50,41,29,94,59,18,29.91,29.76,14,3,14,0.00
2013-4-15,66,50,37,52,42,36,94,76,46,29.91,29.82,16,4,16,0.21
2013-4-16,71,50,34,46,31,7,97,56,11,30.18,29.88,27,5,27,0.00
2013-4-17,72,55,42,29,15,-14,42,26,3,30.24,30.15,22,6,22,0.00
2013-4-18,80,58,40,36,24,-20,58,32,2,30.30,30.18,14,2,14,0.00
2013-4-19,85,62,43,46,39,34,75,48,22,30.30,30.09,14,2,14,0.00
2013-4-20,84,64,48,51,40,32,74,45,21,30.12,30.00,19,2,19,0.00
2013-4-21,88,66,49,51,42,37,69,45,19,30.09,30.00,14,2,14,0.00
2013-4-22,91,67,52,54,42,27,70,44,15,30.03,29.88,17,2,17,0.00
2013-4-23,89,66,46,45,22,-20,54,28,2,30.00,29.88,13,2,13,0.00
2013-4-24,93,70,50,46,20,-19,76,32,2,29.91,29.79,14,4,14,0.00
2013-4-25,82,61,48,52,46,42,90,62,33,30.15,29.88,20,5,20,0.00
2013-4-26,87,63,43,54,47,39,90,59,30,30.24,30.12,11,2,11,0.00
2013-4-27,92,68,50,57,50,46,88,59,28,30.24,30.06,13,2,13,0.00
2013-4-28,93,71,54,55,48,38,81,47,27,30.09,29.91,13,2,13,0.00
2013-4-29,94,72,54,59,49,40,81,49,21,29.94,29.79,150,2,150,0.00
2013-4-30,90,68,51,52,31,-20,81,40,2,29.88,29.76,20,3,20,0.00
2013-5-1,93,72,52,40,9,-19,38,14,2,30.15,29.88,17,3,17,0.00
2013-5-2,96,70,56,45,5,-11,37,13,2,30.24,30.12,11,3,11,0.00
2013-5-7,59,59,59,52,52,51,79,78,77,30.06,30.03,6,1,6,0.34
2013-5-8,83,64,54,58,50,43,92,64,32,30.15,30.03,16,2,16,0.34
2013-5-9,87,66,48,59,51,46,94,63,34,30.18,30.06,14,2,14,0.34
2013-5-10,91,70,54,59,54,49,90,61,32,30.21,30.12,13,2,13,0.34
2013-5-11,100,76,59,64,58,54,89,58,27,30.15,30.09,11,1,11,0.34
2013-5-12,101,77,60,63,40,-9,84,44,2,30.18,30.06,13,2,13,0.34
2013-5-13,101,75,55,52,35,-12,72,39,2,30.12,29.94,13,2,13,0.34
2013-5-14,97,74,57,57,49,41,69,44,26,29.97,29.88,15,2,172,0.34
2013-5-15,64,60,56,45,42,39,60,51,45,30.00,29.94,17,5,17,0.00
2013-5-16,76,61,53,54,47,41,85,62,42,30.06,29.94,16,5,16,0.00
2013-5-17,84,62,47,51,43,32,90,55,27,30.12,29.94,14,3,14,0.00
2013-5-18,89,64,42,50,41,34,83,49,19,30.15,30.06,14,2,14,0.00
2013-5-19,90,68,50,52,43,36,72,44,20,30.12,30.00,19,4,19,0.00
2013-5-20,99,74,55,48,22,-18,47,25,2,30.06,29.94,10,2,10,0.00
2013-5-21,74,61,53,46,39,36,59,44,25,30.00,29.88,17,3,17,0.00
2013-5-22,52,49,45,40,31,25,67,51,44,29.97,29.94,14,4,14,0.00
2013-6-3,66,65,64,49,49,0,57,55,54,29.85,29.85,8,4,8,0.00
2013-6-4,76,60,0,55,49,0,73,66,46,29.91,29.82,13,4,13,0.00
2013-6-5,93,82,64,58,54,47,59,39,29,30.00,29.88,16,3,16,0.00
2013-6-6,96,76,56,61,54,46,74,48,29,29.97,29.85,12,2,12,0.00
2013-6-7,105,81,61,64,56,48,84,48,19,29.91,29.76,16,2,16,0.00
2013-6-8,109,87,67,60,52,44,57,34,14,29.82,29.71,13,2,13,0.00
2013-6-9,88,73,62,58,52,48,67,49,32,29.91,29.76,18,5,18,0.00
2013-6-10,84,65,54,56,50,47,84,61,33,30.00,29.85,16,3,16,0.00
2013-6-11,93,72,52,60,52,47,88,55,28,30.03,29.94,14,2,14,0.00
2013-6-12,89,71,59,51,41,17,71,39,9,30.00,29.91,17,3,17,0.00
2013-6-13,91,70,50,51,31,-20,65,32,2,30.09,29.97,16,3,16,0.00
2013-6-14,93,72,51,50,30,-12,53,29,2,30.03,29.88,13,2,13,0.00
2013-6-20,90,70,52,51,37,-11,53,35,3,30.03,29.94,10,3,14,0.00
2013-6-21,93,72,54,52,42,37,57,37,18,30.00,29.94,11,3,15,0.00
2013-6-22,97,75,55,55,34,-15,67,33,2,29.97,29.85,10,2,14,0.00
2013-6-23,79,67,59,58,51,40,79,58,42,29.91,29.83,10,5,21,0.00
2013-6-24,69,63,60,63,58,56,96,87,75,29.97,29.83,9,2,10,0.37